createdAt,value
2019-03-28T00:00:44.904Z,7.69
2019-03-28T00:03:13.332Z,7.64
2019-03-28T00:05:41.730Z,7.65
2019-03-28T00:08:12.533Z,7.69
2019-03-28T00:10:40.394Z,7.65
2019-03-28T00:13:08.793Z,7.61
2019-03-28T00:15:37.226Z,7.67
2019-03-28T00:18:05.881Z,7.69
2019-03-28T00:20:35.330Z,7.74
2019-03-28T00:23:08.169Z,7.75
2019-03-28T00:25:36.596Z,7.71
2019-03-28T00:28:04.999Z,7.60
2019-03-28T00:30:33.423Z,7.49
2019-03-28T00:33:01.829Z,7.47
2019-03-28T00:35:30.310Z,7.51
2019-03-28T00:37:58.712Z,7.59
2019-03-28T00:40:27.131Z,7.57
2019-03-28T00:42:55.624Z,7.60
2019-03-28T00:45:24.008Z,7.42
2019-03-28T00:47:52.437Z,7.42
2019-03-28T00:50:20.881Z,7.46
2019-03-28T00:52:49.297Z,7.49
2019-03-28T00:55:17.688Z,7.52
2019-03-28T00:57:46.108Z,7.53
2019-03-28T01:00:15.576Z,7.52
2019-03-28T01:02:43.980Z,7.49
2019-03-28T01:05:12.925Z,7.47
2019-03-28T01:07:41.377Z,7.50
2019-03-28T01:10:10.160Z,7.49
2019-03-28T01:12:38.680Z,7.46
2019-03-28T01:15:07.984Z,7.44
2019-03-28T01:17:36.407Z,7.45
2019-03-28T01:20:06.528Z,7.37
2019-03-28T01:22:34.960Z,7.38
2019-03-28T01:25:03.378Z,7.38
2019-03-28T01:27:31.809Z,7.41
2019-03-28T01:30:00.332Z,7.48
2019-03-28T01:32:28.722Z,7.51
2019-03-28T01:34:57.144Z,7.54
2019-03-28T01:37:25.540Z,7.51
2019-03-28T01:39:53.971Z,7.49
2019-03-28T01:42:22.369Z,7.43
2019-03-28T01:44:50.820Z,7.39
2019-03-28T01:47:19.234Z,7.41
2019-03-28T01:49:47.667Z,7.45
2019-03-28T01:52:16.082Z,7.43
2019-03-28T01:54:44.569Z,7.38
2019-03-28T01:57:13.127Z,7.32
2019-03-28T01:59:41.483Z,7.32
2019-03-28T02:02:09.891Z,7.29
2019-03-28T02:04:38.295Z,7.30
2019-03-28T02:07:06.760Z,7.31
2019-03-28T02:09:35.157Z,7.32
2019-03-28T02:12:03.603Z,7.34
2019-03-28T02:14:32.009Z,7.36
2019-03-28T02:17:00.414Z,7.40
2019-03-28T02:19:28.845Z,7.39
2019-03-28T02:21:57.235Z,7.32
2019-03-28T02:24:26.243Z,7.27
2019-03-28T02:26:54.853Z,7.24
2019-03-28T02:29:23.279Z,7.27
2019-03-28T02:31:51.681Z,7.28
2019-03-28T02:34:20.112Z,7.29
2019-03-28T02:36:48.581Z,7.27
2019-03-28T02:39:16.992Z,7.26
2019-03-28T02:41:45.411Z,7.28
2019-03-28T02:44:13.807Z,7.32
2019-03-28T02:46:42.234Z,7.32
2019-03-28T02:49:10.651Z,7.34
2019-03-28T02:51:39.056Z,7.38
2019-03-28T02:54:07.487Z,7.38
2019-03-28T02:56:35.907Z,7.34
2019-03-28T02:59:04.374Z,7.27
2019-03-28T03:01:32.792Z,7.22
2019-03-28T03:04:01.198Z,7.23
2019-03-28T03:06:29.681Z,7.28
2019-03-28T03:08:58.070Z,7.30
2019-03-28T03:11:26.489Z,7.35
2019-03-28T03:13:54.886Z,7.29
2019-03-28T03:16:23.287Z,7.28
2019-03-28T03:18:51.702Z,7.30
2019-03-28T03:21:20.126Z,7.28
2019-03-28T03:23:48.541Z,7.31
2019-03-28T03:26:16.961Z,7.31
2019-03-28T03:28:45.381Z,7.34
2019-03-28T03:31:20.279Z,7.34
2019-03-28T03:33:43.967Z,7.33
2019-03-28T03:36:12.401Z,7.40
2019-03-28T03:38:40.803Z,7.42
2019-03-28T03:41:09.292Z,7.44
2019-03-28T03:43:37.747Z,7.47
2019-03-28T03:46:06.223Z,7.48
2019-03-28T03:48:34.719Z,7.50
2019-03-28T03:51:03.110Z,7.53
2019-03-28T03:53:31.537Z,7.34
2019-03-28T03:55:59.944Z,7.14
2019-03-28T03:58:28.367Z,7.19
2019-03-28T04:00:56.771Z,7.21
2019-03-28T04:03:25.264Z,7.24
2019-03-28T04:05:53.676Z,7.33
2019-03-28T04:08:22.092Z,7.39
2019-03-28T04:10:50.488Z,7.41
2019-03-28T04:13:18.887Z,7.42
2019-03-28T04:15:47.472Z,7.38
2019-03-28T04:18:15.881Z,7.37
2019-03-28T04:20:44.302Z,7.35
2019-03-28T04:23:12.723Z,7.34
2019-03-28T04:25:41.111Z,7.34
2019-03-28T04:28:09.528Z,7.36
2019-03-28T04:30:37.925Z,7.38
2019-03-28T04:33:06.333Z,7.39
2019-03-28T04:35:34.807Z,7.40
2019-03-28T04:38:03.227Z,7.43
2019-03-28T04:40:31.622Z,7.46
2019-03-28T04:43:00.068Z,7.47
2019-03-28T04:45:28.429Z,7.47
2019-03-28T04:47:56.837Z,7.50
2019-03-28T04:50:25.261Z,7.51
2019-03-28T04:52:54.138Z,7.52
2019-03-28T04:55:22.535Z,7.53
2019-03-28T04:57:50.966Z,7.53
2019-03-28T05:00:19.700Z,7.53
2019-03-28T05:02:48.129Z,7.40
2019-03-28T05:05:16.572Z,7.35
2019-03-28T05:07:44.986Z,7.28
2019-03-28T05:10:13.524Z,7.27
2019-03-28T05:12:42.064Z,7.29
2019-03-28T05:15:11.221Z,7.27
2019-03-28T05:17:40.408Z,7.27
2019-03-28T05:20:09.363Z,7.28
2019-03-28T05:22:37.857Z,7.26
2019-03-28T05:25:07.438Z,7.26
2019-03-28T05:27:35.840Z,7.30
2019-03-28T05:30:11.298Z,7.34
2019-03-28T05:32:39.788Z,7.36
2019-03-28T05:35:08.347Z,7.33
2019-03-28T05:37:36.745Z,7.30
2019-03-28T05:40:07.101Z,7.29
2019-03-28T05:42:35.501Z,7.32
2019-03-28T05:45:07.455Z,7.33
2019-03-28T05:47:35.864Z,7.33
2019-03-28T05:50:06.312Z,7.35
2019-03-28T05:52:34.801Z,7.35
2019-03-28T05:55:05.338Z,7.34
2019-03-28T05:57:33.412Z,7.33
2019-03-28T06:00:01.841Z,7.30
2019-03-28T06:02:30.245Z,7.30
2019-03-28T06:04:58.662Z,7.35
2019-03-28T06:07:27.081Z,7.37
2019-03-28T06:09:55.483Z,7.41
2019-03-28T06:12:23.897Z,7.42
2019-03-28T06:14:52.321Z,7.44
2019-03-28T06:17:20.760Z,7.45
2019-03-28T06:19:49.245Z,7.47
2019-03-28T06:22:17.669Z,7.48
2019-03-28T06:24:46.132Z,7.50
2019-03-28T06:27:14.519Z,7.51
2019-03-28T06:29:42.946Z,7.53
2019-03-28T06:32:11.369Z,7.55
2019-03-28T06:34:39.815Z,7.55
2019-03-28T06:37:08.315Z,7.59
2019-03-28T06:39:36.734Z,7.57
2019-03-28T06:42:05.116Z,7.59
2019-03-28T06:44:33.529Z,7.62
2019-03-28T06:47:01.930Z,7.61
2019-03-28T06:49:30.361Z,7.60
2019-03-28T06:51:58.803Z,7.61
2019-03-28T06:54:27.184Z,7.65
2019-03-28T06:56:55.589Z,7.66
2019-03-28T06:59:36.226Z,7.70
2019-03-28T07:01:54.370Z,7.74
2019-03-28T07:04:22.779Z,7.76
2019-03-28T07:06:51.199Z,7.77
2019-03-28T07:09:19.600Z,7.77
2019-03-28T07:11:48.016Z,7.76
2019-03-28T07:14:16.490Z,7.75
2019-03-28T07:16:44.928Z,7.78
2019-03-28T07:19:13.405Z,7.83
2019-03-28T07:21:41.876Z,7.88
2019-03-28T07:24:10.429Z,7.90
2019-03-28T07:26:38.903Z,7.94
2019-03-28T07:29:07.356Z,7.98
2019-03-28T07:31:35.821Z,8.02
2019-03-28T07:34:04.268Z,8.00
2019-03-28T07:36:32.702Z,7.98
2019-03-28T07:39:02.014Z,8.01
2019-03-28T07:41:30.433Z,8.03
2019-03-28T07:43:58.883Z,8.07
2019-03-28T07:46:27.389Z,8.09
2019-03-28T07:48:55.778Z,8.09
2019-03-28T07:51:24.296Z,8.13
2019-03-28T07:53:52.791Z,8.17
2019-03-28T07:56:21.227Z,8.20
2019-03-28T07:58:49.737Z,8.21
2019-03-28T08:01:18.367Z,8.17
2019-03-28T08:03:46.778Z,8.20
2019-03-28T08:06:15.344Z,8.21
2019-03-28T08:08:44.279Z,8.25
2019-03-28T08:11:12.980Z,8.32
2019-03-28T08:13:41.470Z,8.37
2019-03-28T08:16:09.897Z,8.38
2019-03-28T08:18:38.323Z,8.39
2019-03-28T08:21:06.832Z,8.41
2019-03-28T08:23:35.591Z,8.42
2019-03-28T08:26:04.280Z,8.44
2019-03-28T08:28:32.725Z,8.45
2019-03-28T08:31:01.126Z,8.43
2019-03-28T08:33:29.715Z,8.49
2019-03-28T08:35:58.612Z,8.46
2019-03-28T08:38:27.551Z,8.55
2019-03-28T08:40:55.990Z,8.64
2019-03-28T08:43:24.412Z,8.66
2019-03-28T08:45:52.854Z,8.68
2019-03-28T08:48:21.327Z,8.74
2019-03-28T08:50:49.826Z,8.78
2019-03-28T08:53:18.297Z,8.82
2019-03-28T08:55:46.783Z,8.84
2019-03-28T08:58:15.157Z,8.88
2019-03-28T09:00:51.530Z,8.91
2019-03-28T09:03:13.882Z,8.93
2019-03-28T09:05:42.432Z,8.95
2019-03-28T09:08:10.940Z,8.96
2019-03-28T09:10:39.328Z,8.99
2019-03-28T09:13:07.870Z,9.00
2019-03-28T09:15:43.539Z,9.02
2019-03-28T09:18:06.618Z,9.02
2019-03-28T09:20:35.134Z,9.04
2019-03-28T09:23:03.651Z,9.03
2019-03-28T09:25:32.087Z,9.07
2019-03-28T09:28:00.504Z,9.08
2019-03-28T09:30:47.642Z,9.13
2019-03-28T09:33:05.530Z,9.17
2019-03-28T09:35:34.121Z,9.25
2019-03-28T09:38:02.665Z,9.32
2019-03-28T09:40:31.096Z,9.35
2019-03-28T09:42:59.672Z,9.43
2019-03-28T09:45:28.273Z,9.45
2019-03-28T09:47:56.775Z,9.52
2019-03-28T09:50:25.255Z,9.58
2019-03-28T09:52:54.170Z,9.65
2019-03-28T09:55:22.784Z,9.68
2019-03-28T09:57:51.206Z,9.75
2019-03-28T10:00:21.182Z,9.83
2019-03-28T10:02:49.609Z,9.90
2019-03-28T10:05:18.018Z,9.94
2019-03-28T10:07:46.444Z,9.98
2019-03-28T10:10:15.024Z,10.06
2019-03-28T10:12:44.234Z,10.09
2019-03-28T10:15:13.087Z,10.11
2019-03-28T10:17:42.550Z,10.10
2019-03-28T10:20:11.201Z,10.11
2019-03-28T10:22:39.705Z,10.17
2019-03-28T10:25:12.283Z,10.19
2019-03-28T10:27:39.030Z,10.27
2019-03-28T10:30:09.693Z,10.36
2019-03-28T10:32:38.221Z,10.44
2019-03-28T10:35:07.262Z,10.49
2019-03-28T10:37:35.911Z,10.59
2019-03-28T10:40:06.985Z,10.65
2019-03-28T10:42:35.470Z,10.67
2019-03-28T10:45:05.331Z,10.68
2019-03-28T10:47:33.746Z,10.68
2019-03-28T10:50:04.249Z,10.72
2019-03-28T10:52:32.392Z,10.74
2019-03-28T10:55:00.796Z,10.78
2019-03-28T10:57:30.351Z,10.85
2019-03-28T10:59:59.438Z,10.94
2019-03-28T11:02:28.976Z,11.05
2019-03-28T11:04:57.572Z,11.07
2019-03-28T11:07:25.975Z,11.06
2019-03-28T11:09:54.417Z,11.04
2019-03-28T11:12:22.852Z,11.08
2019-03-28T11:14:51.264Z,11.17
2019-03-28T11:17:19.685Z,11.21
2019-03-28T11:19:48.086Z,11.19
2019-03-28T11:22:16.518Z,11.24
2019-03-28T11:24:46.496Z,11.31
2019-03-28T11:27:15.098Z,11.41
2019-03-28T11:29:43.501Z,11.47
2019-03-28T11:32:11.937Z,11.51
2019-03-28T11:34:40.902Z,11.54
2019-03-28T11:37:19.971Z,11.49
2019-03-28T11:39:39.835Z,11.45
2019-03-28T11:42:08.348Z,11.49
2019-03-28T11:44:36.735Z,11.44
2019-03-28T11:47:05.224Z,11.47
2019-03-28T11:49:33.717Z,11.43
2019-03-28T11:52:02.254Z,11.46
2019-03-28T11:54:30.698Z,11.50
2019-03-28T11:56:59.123Z,11.51
2019-03-28T11:59:27.544Z,11.54
2019-03-28T12:02:00.574Z,11.55
2019-03-28T12:04:26.200Z,11.71
2019-03-28T12:06:54.620Z,11.80
2019-03-28T12:09:23.046Z,11.78
2019-03-28T12:11:53.058Z,11.67
2019-03-28T12:14:21.719Z,11.69
2019-03-28T12:16:50.133Z,11.79
2019-03-28T12:19:18.627Z,11.90
2019-03-28T12:21:47.009Z,11.88
2019-03-28T12:24:15.497Z,11.92
2019-03-28T12:26:44.062Z,11.97
2019-03-28T12:29:12.587Z,11.98
2019-03-28T12:31:41.064Z,11.94
2019-03-28T12:34:09.543Z,11.98
2019-03-28T12:36:38.002Z,11.95
2019-03-28T12:39:06.985Z,11.95
2019-03-28T12:41:35.426Z,12.10
2019-03-28T12:44:03.925Z,12.22
2019-03-28T12:46:32.319Z,12.27
2019-03-28T12:49:00.778Z,12.38
2019-03-28T12:51:29.183Z,12.47
2019-03-28T12:53:57.626Z,12.49
2019-03-28T12:56:26.467Z,12.51
2019-03-28T12:58:55.061Z,12.22
2019-03-28T13:01:24.509Z,12.12
2019-03-28T13:03:52.993Z,12.08
2019-03-28T13:06:21.397Z,12.08
2019-03-28T13:08:49.810Z,12.11
2019-03-28T13:11:18.272Z,12.11
2019-03-28T13:13:46.698Z,12.20
2019-03-28T13:16:15.146Z,12.25
2019-03-28T13:18:43.582Z,12.30
2019-03-28T13:21:13.852Z,12.33
2019-03-28T13:23:42.158Z,12.34
2019-03-28T13:26:10.653Z,12.22
2019-03-28T13:28:39.080Z,12.20
2019-03-28T13:31:07.574Z,12.29
2019-03-28T13:33:36.000Z,12.26
2019-03-28T13:36:04.403Z,12.28
2019-03-28T13:38:32.829Z,12.25
2019-03-28T13:41:01.239Z,12.18
2019-03-28T13:43:30.670Z,12.14
2019-03-28T13:45:59.123Z,12.18
2019-03-28T13:48:27.531Z,12.16
2019-03-28T13:50:55.977Z,12.20
2019-03-28T13:53:38.009Z,12.19
2019-03-28T13:55:54.664Z,12.28
2019-03-28T13:58:23.067Z,12.27
2019-03-28T14:00:54.415Z,12.26
2019-03-28T14:03:21.759Z,12.31
2019-03-28T14:05:50.254Z,12.31
2019-03-28T14:08:18.670Z,12.32
2019-03-28T14:10:47.176Z,12.31
2019-03-28T14:13:15.578Z,12.26
2019-03-28T14:15:44.005Z,12.22
2019-03-28T14:18:12.449Z,12.24
2019-03-28T14:20:40.850Z,12.24
2019-03-28T14:23:09.264Z,12.21
2019-03-28T14:25:37.703Z,12.25
2019-03-28T14:28:06.235Z,12.21
2019-03-28T14:30:34.630Z,12.22
2019-03-28T14:33:11.056Z,12.26
2019-03-28T14:35:33.190Z,12.30
2019-03-28T14:38:01.587Z,12.27
2019-03-28T14:40:30.004Z,12.31
2019-03-28T14:42:58.479Z,12.34
2019-03-28T14:45:26.971Z,12.35
2019-03-28T14:47:55.399Z,12.29
2019-03-28T14:50:35.623Z,12.28
2019-03-28T14:53:04.581Z,12.33
2019-03-28T14:55:35.216Z,12.31
2019-03-28T14:58:09.460Z,12.27
2019-03-28T15:00:48.857Z,12.27
2019-03-28T15:03:26.345Z,12.28
2019-03-28T15:05:48.090Z,12.25
2019-03-28T15:08:16.572Z,12.25
2019-03-28T15:10:45.117Z,12.23
2019-03-28T15:13:13.648Z,12.22
2019-03-28T15:15:42.099Z,12.19
2019-03-28T15:18:10.546Z,12.15
2019-03-28T15:20:38.996Z,12.13
2019-03-28T15:23:07.502Z,12.14
2019-03-28T15:25:36.027Z,12.15
2019-03-28T15:28:04.537Z,12.14
2019-03-28T15:30:32.956Z,12.12
2019-03-28T15:33:01.401Z,12.09
2019-03-28T15:35:29.830Z,12.11
2019-03-28T15:37:58.263Z,12.11
2019-03-28T15:40:26.871Z,12.10
2019-03-28T15:42:55.388Z,12.10
2019-03-28T15:45:24.023Z,12.08
2019-03-28T15:47:52.447Z,12.08
2019-03-28T15:50:20.906Z,12.03
2019-03-28T15:52:49.411Z,12.02
2019-03-28T15:55:17.903Z,12.03
2019-03-28T15:57:46.401Z,12.01
2019-03-28T16:00:15.381Z,12.01
2019-03-28T16:02:43.806Z,12.04
2019-03-28T16:05:12.303Z,12.04
2019-03-28T16:07:41.095Z,12.03
2019-03-28T16:10:10.155Z,12.03
2019-03-28T16:12:38.650Z,12.00
2019-03-28T16:15:08.124Z,11.98
2019-03-28T16:17:36.608Z,11.98
2019-03-28T16:20:07.196Z,11.96
2019-03-28T16:22:35.642Z,11.95
2019-03-28T16:25:05.627Z,11.96
2019-03-28T16:27:34.007Z,11.89
2019-03-28T16:30:02.542Z,11.92
2019-03-28T16:32:30.962Z,11.90
2019-03-28T16:34:59.378Z,11.86
2019-03-28T16:37:27.964Z,11.84
2019-03-28T16:39:56.513Z,11.82
2019-03-28T16:42:24.948Z,11.84
2019-03-28T16:44:53.358Z,11.82
2019-03-28T16:47:21.760Z,11.82
2019-03-28T16:49:50.323Z,11.83
2019-03-28T16:52:18.741Z,11.81
2019-03-28T16:54:47.212Z,11.78
2019-03-28T16:57:15.626Z,11.77
2019-03-28T16:59:44.048Z,11.75
2019-03-28T17:02:12.548Z,11.74
2019-03-28T17:04:40.980Z,11.74
2019-03-28T17:07:09.956Z,11.73
2019-03-28T17:09:39.265Z,11.72
2019-03-28T17:12:08.150Z,11.69
2019-03-28T17:14:36.719Z,11.65
2019-03-28T17:17:05.235Z,11.64
2019-03-28T17:19:33.659Z,11.63
2019-03-28T17:22:02.173Z,11.62
2019-03-28T17:24:30.688Z,8.72
2019-03-28T17:26:59.187Z,11.55
2019-03-28T17:29:27.612Z,11.55
2019-03-28T17:31:56.043Z,11.50
2019-03-28T17:34:34.655Z,11.50
2019-03-28T17:36:54.597Z,11.49
2019-03-28T17:39:23.032Z,11.49
2019-03-28T17:41:51.529Z,11.47
2019-03-28T17:44:19.972Z,11.45
2019-03-28T17:46:48.395Z,11.44
2019-03-28T17:49:16.807Z,11.44
2019-03-28T17:51:45.337Z,11.43
2019-03-28T17:54:13.757Z,11.42
2019-03-28T17:56:42.263Z,11.39
2019-03-28T17:59:10.770Z,11.33
2019-03-28T18:01:39.211Z,11.32
2019-03-28T18:04:07.672Z,11.31
2019-03-28T18:06:36.191Z,11.32
2019-03-28T18:09:07.048Z,11.31
2019-03-28T18:11:35.481Z,11.31
2019-03-28T18:14:04.561Z,11.30
2019-03-28T18:16:34.106Z,11.29
2019-03-28T18:19:02.563Z,11.27
2019-03-28T18:21:30.982Z,11.24
2019-03-28T18:23:59.418Z,11.22
2019-03-28T18:26:27.982Z,11.20
2019-03-28T18:28:56.390Z,11.17
2019-03-28T18:31:24.819Z,11.15
2019-03-28T18:33:53.252Z,11.09
2019-03-28T18:36:21.734Z,11.03
2019-03-28T18:38:52.483Z,11.01
2019-03-28T18:41:20.327Z,11.02
2019-03-28T18:43:49.746Z,10.99
2019-03-28T18:46:18.448Z,10.98
2019-03-28T18:48:46.978Z,10.99
2019-03-28T18:51:15.463Z,10.95
2019-03-28T18:53:43.871Z,10.95
2019-03-28T18:56:12.385Z,10.95
2019-03-28T18:58:40.810Z,10.96
2019-03-28T19:01:09.347Z,10.96
2019-03-28T19:03:37.806Z,10.94
2019-03-28T19:06:06.372Z,10.87
2019-03-28T19:08:34.867Z,10.87
2019-03-28T19:11:04.006Z,10.83
2019-03-28T19:13:32.673Z,10.79
2019-03-28T19:16:01.296Z,10.80
2019-03-28T19:18:29.738Z,10.75
2019-03-28T19:20:58.149Z,10.75
2019-03-28T19:23:26.613Z,10.75
2019-03-28T19:25:55.087Z,10.74
2019-03-28T19:28:29.243Z,10.70
2019-03-28T19:30:53.693Z,10.68
2019-03-28T19:33:22.128Z,10.70
2019-03-28T19:35:51.282Z,10.68
2019-03-28T19:38:19.806Z,10.67
2019-03-28T19:40:48.359Z,10.66
2019-03-28T19:43:20.947Z,10.63
2019-03-28T19:45:47.280Z,10.61
2019-03-28T19:48:15.725Z,10.57
2019-03-28T19:50:44.151Z,10.50
2019-03-28T19:53:12.564Z,10.46
2019-03-28T19:55:41.007Z,10.33
2019-03-28T19:58:09.481Z,10.26
2019-03-28T20:00:37.969Z,10.20
2019-03-28T20:03:06.470Z,10.05
2019-03-28T20:05:46.735Z,10.03
2019-03-28T20:08:15.422Z,9.97
2019-03-28T20:10:35.546Z,9.83
2019-03-28T20:13:05.417Z,9.68
2019-03-28T20:15:34.199Z,9.63
2019-03-28T20:18:02.708Z,9.65
2019-03-28T20:20:31.218Z,9.62
2019-03-28T20:22:59.724Z,9.41
2019-03-28T20:25:28.316Z,9.48
2019-03-28T20:27:56.772Z,9.42
2019-03-28T20:30:25.323Z,9.40
2019-03-28T20:32:53.834Z,9.25
2019-03-28T20:35:22.354Z,9.24
2019-03-28T20:37:50.817Z,9.18
2019-03-28T20:40:20.061Z,9.00
2019-03-28T20:42:48.543Z,8.88
2019-03-28T20:45:18.538Z,8.78
2019-03-28T20:47:46.973Z,8.79
2019-03-28T20:50:17.215Z,8.82
2019-03-28T20:52:45.726Z,8.81
2019-03-28T20:55:14.292Z,8.69
2019-03-28T20:57:42.728Z,8.67
2019-03-28T21:00:12.912Z,8.68
2019-03-28T21:02:41.738Z,8.65
2019-03-28T21:05:10.704Z,8.62
2019-03-28T21:07:39.279Z,8.50
2019-03-28T21:10:09.804Z,8.31
2019-03-28T21:12:38.221Z,8.29
2019-03-28T21:15:08.103Z,8.34
2019-03-28T21:17:36.554Z,8.32
2019-03-28T21:20:06.862Z,8.24
2019-03-28T21:22:35.254Z,8.38
2019-03-28T21:25:04.899Z,8.46
2019-03-28T21:27:33.369Z,8.42
2019-03-28T21:30:01.736Z,8.36
2019-03-28T21:32:30.178Z,8.27
2019-03-28T21:34:58.649Z,8.05
2019-03-28T21:37:27.084Z,8.00
2019-03-28T21:39:55.477Z,7.98
2019-03-28T21:42:23.962Z,7.91
2019-03-28T21:44:52.415Z,7.86
2019-03-28T21:47:20.861Z,7.76
2019-03-28T21:49:49.388Z,7.84
2019-03-28T21:52:17.817Z,7.67
2019-03-28T21:54:46.233Z,7.71
2019-03-28T21:57:14.882Z,7.80
2019-03-28T21:59:43.290Z,7.66
2019-03-28T22:02:11.742Z,7.63
2019-03-28T22:04:40.157Z,7.63
2019-03-28T22:07:08.594Z,7.70
2019-03-28T22:09:39.614Z,7.53
2019-03-28T22:12:07.222Z,7.27
2019-03-28T22:14:35.630Z,7.05
2019-03-28T22:17:04.042Z,7.05
2019-03-28T22:19:32.461Z,7.17
2019-03-28T22:22:01.949Z,7.21
2019-03-28T22:24:30.789Z,7.31
2019-03-28T22:26:59.223Z,7.32
2019-03-28T22:29:27.711Z,7.24
2019-03-28T22:31:56.809Z,7.13
2019-03-28T22:34:25.480Z,7.05
2019-03-28T22:36:57.561Z,7.03
2019-03-28T22:39:24.013Z,7.06
2019-03-28T22:41:52.427Z,7.06
2019-03-28T22:44:20.893Z,6.84
2019-03-28T22:46:49.311Z,6.74
2019-03-28T22:49:17.750Z,6.66
2019-03-28T22:51:46.172Z,6.54
2019-03-28T22:54:14.587Z,6.49
2019-03-28T22:56:43.090Z,6.44
2019-03-28T22:59:11.496Z,6.34
2019-03-28T23:01:39.966Z,6.37
2019-03-28T23:04:08.474Z,6.40
2019-03-28T23:06:36.897Z,6.46
2019-03-28T23:09:06.849Z,6.46
2019-03-28T23:11:35.296Z,6.50
2019-03-28T23:14:03.848Z,6.50
2019-03-28T23:16:32.256Z,6.57
2019-03-28T23:19:00.838Z,6.53
2019-03-28T23:21:29.249Z,6.54
2019-03-28T23:23:57.654Z,6.43
2019-03-28T23:26:26.085Z,6.33
2019-03-28T23:28:54.482Z,6.29
2019-03-28T23:31:22.897Z,6.37
2019-03-28T23:33:51.315Z,6.42
2019-03-28T23:36:19.727Z,6.45
2019-03-28T23:38:48.134Z,6.36
2019-03-28T23:41:16.553Z,6.26
2019-03-28T23:43:45.034Z,6.26
2019-03-28T23:46:13.429Z,6.20
2019-03-28T23:48:41.851Z,6.07
2019-03-28T23:51:10.280Z,6.04
2019-03-28T23:53:39.260Z,6.04
2019-03-28T23:56:07.681Z,6.11
2019-03-28T23:58:36.549Z,6.06
